sensor_id;sensor_type;location;lat;lon;timestamp;P1;durP1;ratioP1;P2;durP2;ratioP2
41305;SDS011;27051;50.376;19.152;2022-10-13T00:00:41;47.17;;;21.87;;
41305;SDS011;27051;50.376;19.152;2022-10-13T00:03:12;44.20;;;21.67;;
41305;SDS011;27051;50.376;19.152;2022-10-13T00:05:40;50.25;;;23.05;;
41305;SDS011;27051;50.376;19.152;2022-10-13T00:08:09;44.60;;;24.40;;
41305;SDS011;27051;50.376;19.152;2022-10-13T00:10:37;42.35;;;20.35;;
41305;SDS011;27051;50.376;19.152;2022-10-13T00:13:06;40.75;;;21.40;;
41305;SDS011;27051;50.376;19.152;2022-10-13T00:15:42;40.12;;;20.75;;
41305;SDS011;27051;50.376;19.152;2022-10-13T00:18:07;36.25;;;20.00;;
41305;SDS011;27051;50.376;19.152;2022-10-13T00:20:35;41.95;;;20.23;;
41305;SDS011;27051;50.376;19.152;2022-10-13T00:23:02;38.88;;;21.25;;
41305;SDS011;27051;50.376;19.152;2022-10-13T00:25:29;41.65;;;21.12;;
41305;SDS011;27051;50.376;19.152;2022-10-13T00:27:55;43.58;;;22.15;;
41305;SDS011;27051;50.376;19.152;2022-10-13T00:30:22;41.40;;;20.50;;
41305;SDS011;27051;50.376;19.152;2022-10-13T00:32:49;38.98;;;21.12;;
41305;SDS011;27051;50.376;19.152;2022-10-13T00:35:15;42.70;;;22.07;;
41305;SDS011;27051;50.376;19.152;2022-10-13T00:37:42;42.88;;;20.52;;
41305;SDS011;27051;50.376;19.152;2022-10-13T00:40:09;42.93;;;19.25;;
41305;SDS011;27051;50.376;19.152;2022-10-13T00:42:39;39.30;;;20.52;;
41305;SDS011;27051;50.376;19.152;2022-10-13T00:45:14;49.05;;;21.70;;
41305;SDS011;27051;50.376;19.152;2022-10-13T00:47:50;43.70;;;19.85;;
41305;SDS011;27051;50.376;19.152;2022-10-13T00:50:19;36.98;;;19.02;;
41305;SDS011;27051;50.376;19.152;2022-10-13T00:55:17;40.17;;;20.12;;
41305;SDS011;27051;50.376;19.152;2022-10-13T00:57:47;40.28;;;20.05;;
41305;SDS011;27051;50.376;19.152;2022-10-13T01:00:17;39.63;;;18.87;;
41305;SDS011;27051;50.376;19.152;2022-10-13T01:02:44;37.28;;;18.87;;
41305;SDS011;27051;50.376;19.152;2022-10-13T01:05:10;38.10;;;19.37;;
41305;SDS011;27051;50.376;19.152;2022-10-13T01:07:37;45.28;;;20.62;;
41305;SDS011;27051;50.376;19.152;2022-10-13T01:10:04;47.85;;;19.95;;
41305;SDS011;27051;50.376;19.152;2022-10-13T01:21:03;35.80;;;17.77;;
41305;SDS011;27051;50.376;19.152;2022-10-13T01:24:40;38.63;;;18.87;;
41305;SDS011;27051;50.376;19.152;2022-10-13T01:38:23;31.93;;;15.90;;
41305;SDS011;27051;50.376;19.152;2022-10-13T01:44:07;38.28;;;17.07;;
41305;SDS011;27051;50.376;19.152;2022-10-13T01:46:56;39.65;;;16.93;;
41305;SDS011;27051;50.376;19.152;2022-10-13T01:49:26;34.10;;;17.15;;
41305;SDS011;27051;50.376;19.152;2022-10-13T01:51:58;32.75;;;16.42;;
41305;SDS011;27051;50.376;19.152;2022-10-13T01:54:27;38.05;;;17.98;;
41305;SDS011;27051;50.376;19.152;2022-10-13T01:56:54;37.93;;;17.67;;
41305;SDS011;27051;50.376;19.152;2022-10-13T01:59:22;39.03;;;17.95;;
41305;SDS011;27051;50.376;19.152;2022-10-13T02:01:53;35.08;;;16.27;;
41305;SDS011;27051;50.376;19.152;2022-10-13T02:15:30;39.78;;;17.17;;
41305;SDS011;27051;50.376;19.152;2022-10-13T02:18:06;33.27;;;16.63;;
41305;SDS011;27051;50.376;19.152;2022-10-13T02:23:12;33.25;;;16.23;;
41305;SDS011;27051;50.376;19.152;2022-10-13T02:25:44;34.13;;;16.95;;
41305;SDS011;27051;50.376;19.152;2022-10-13T02:28:13;34.75;;;16.85;;
41305;SDS011;27051;50.376;19.152;2022-10-13T02:30:41;31.37;;;15.75;;
41305;SDS011;27051;50.376;19.152;2022-10-13T02:33:10;38.15;;;16.73;;
41305;SDS011;27051;50.376;19.152;2022-10-13T02:35:37;37.40;;;16.73;;
41305;SDS011;27051;50.376;19.152;2022-10-13T02:38:05;32.73;;;16.05;;
41305;SDS011;27051;50.376;19.152;2022-10-13T02:40:32;31.27;;;15.80;;
41305;SDS011;27051;50.376;19.152;2022-10-13T02:42:58;36.03;;;16.12;;
41305;SDS011;27051;50.376;19.152;2022-10-13T02:45:25;31.23;;;15.65;;
41305;SDS011;27051;50.376;19.152;2022-10-13T02:47:52;32.53;;;16.17;;
41305;SDS011;27051;50.376;19.152;2022-10-13T02:50:19;33.55;;;16.70;;
41305;SDS011;27051;50.376;19.152;2022-10-13T02:52:46;32.58;;;15.88;;
41305;SDS011;27051;50.376;19.152;2022-10-13T02:55:13;30.97;;;15.45;;
41305;SDS011;27051;50.376;19.152;2022-10-13T02:57:39;32.38;;;14.83;;
41305;SDS011;27051;50.376;19.152;2022-10-13T03:00:06;35.45;;;14.70;;
41305;SDS011;27051;50.376;19.152;2022-10-13T03:02:34;35.05;;;17.45;;
41305;SDS011;27051;50.376;19.152;2022-10-13T03:05:00;32.35;;;14.63;;
41305;SDS011;27051;50.376;19.152;2022-10-13T03:07:27;34.18;;;16.32;;
41305;SDS011;27051;50.376;19.152;2022-10-13T03:09:54;30.77;;;14.98;;
41305;SDS011;27051;50.376;19.152;2022-10-13T03:12:21;33.63;;;15.48;;
41305;SDS011;27051;50.376;19.152;2022-10-13T03:14:47;32.53;;;15.13;;
41305;SDS011;27051;50.376;19.152;2022-10-13T03:17:14;32.50;;;14.45;;
41305;SDS011;27051;50.376;19.152;2022-10-13T03:19:40;29.05;;;14.25;;
41305;SDS011;27051;50.376;19.152;2022-10-13T03:22:07;33.75;;;14.98;;
41305;SDS011;27051;50.376;19.152;2022-10-13T03:24:34;27.62;;;14.70;;
41305;SDS011;27051;50.376;19.152;2022-10-13T03:27:00;32.20;;;14.93;;
41305;SDS011;27051;50.376;19.152;2022-10-13T03:29:27;30.80;;;15.25;;
41305;SDS011;27051;50.376;19.152;2022-10-13T03:31:54;29.77;;;13.55;;
41305;SDS011;27051;50.376;19.152;2022-10-13T03:34:21;29.50;;;15.65;;
41305;SDS011;27051;50.376;19.152;2022-10-13T03:36:48;34.08;;;15.28;;
41305;SDS011;27051;50.376;19.152;2022-10-13T03:39:14;33.67;;;16.82;;
41305;SDS011;27051;50.376;19.152;2022-10-13T03:41:41;27.32;;;15.05;;
41305;SDS011;27051;50.376;19.152;2022-10-13T03:44:11;28.38;;;13.55;;
41305;SDS011;27051;50.376;19.152;2022-10-13T03:46:38;30.37;;;14.50;;
41305;SDS011;27051;50.376;19.152;2022-10-13T03:49:05;33.42;;;15.40;;
41305;SDS011;27051;50.376;19.152;2022-10-13T03:51:32;34.98;;;17.00;;
41305;SDS011;27051;50.376;19.152;2022-10-13T03:54:02;61.42;;;29.92;;
41305;SDS011;27051;50.376;19.152;2022-10-13T03:56:29;65.03;;;33.95;;
41305;SDS011;27051;50.376;19.152;2022-10-13T03:58:57;49.00;;;22.75;;
41305;SDS011;27051;50.376;19.152;2022-10-13T04:01:27;35.60;;;18.10;;
41305;SDS011;27051;50.376;19.152;2022-10-13T04:03:56;37.30;;;17.48;;
41305;SDS011;27051;50.376;19.152;2022-10-13T04:06:24;38.48;;;16.35;;
41305;SDS011;27051;50.376;19.152;2022-10-13T04:08:52;33.73;;;16.42;;
41305;SDS011;27051;50.376;19.152;2022-10-13T04:11:20;35.88;;;15.68;;
41305;SDS011;27051;50.376;19.152;2022-10-13T04:13:47;40.95;;;17.17;;
41305;SDS011;27051;50.376;19.152;2022-10-13T04:16:15;35.43;;;16.60;;
41305;SDS011;27051;50.376;19.152;2022-10-13T04:18:48;33.13;;;16.00;;
41305;SDS011;27051;50.376;19.152;2022-10-13T04:21:21;40.20;;;16.45;;
41305;SDS011;27051;50.376;19.152;2022-10-13T04:23:48;37.88;;;17.73;;
41305;SDS011;27051;50.376;19.152;2022-10-13T04:26:16;38.85;;;17.32;;
41305;SDS011;27051;50.376;19.152;2022-10-13T04:28:46;37.80;;;17.20;;
41305;SDS011;27051;50.376;19.152;2022-10-13T04:31:14;38.40;;;17.00;;
41305;SDS011;27051;50.376;19.152;2022-10-13T04:33:42;38.65;;;19.07;;
41305;SDS011;27051;50.376;19.152;2022-10-13T04:36:10;32.83;;;16.55;;
41305;SDS011;27051;50.376;19.152;2022-10-13T04:38:40;35.10;;;16.12;;
41305;SDS011;27051;50.376;19.152;2022-10-13T04:41:08;30.00;;;15.13;;
41305;SDS011;27051;50.376;19.152;2022-10-13T04:43:36;30.97;;;14.87;;
41305;SDS011;27051;50.376;19.152;2022-10-13T04:46:04;29.92;;;14.90;;
41305;SDS011;27051;50.376;19.152;2022-10-13T04:48:41;31.62;;;14.15;;
41305;SDS011;27051;50.376;19.152;2022-10-13T04:51:08;33.65;;;15.90;;
41305;SDS011;27051;50.376;19.152;2022-10-13T04:53:38;30.30;;;15.40;;
41305;SDS011;27051;50.376;19.152;2022-10-13T04:56:07;32.63;;;14.58;;
41305;SDS011;27051;50.376;19.152;2022-10-13T04:58:40;30.60;;;14.53;;
41305;SDS011;27051;50.376;19.152;2022-10-13T05:01:13;29.98;;;16.10;;
41305;SDS011;27051;50.376;19.152;2022-10-13T05:03:43;28.40;;;14.15;;
41305;SDS011;27051;50.376;19.152;2022-10-13T05:06:17;29.32;;;14.58;;
41305;SDS011;27051;50.376;19.152;2022-10-13T05:08:47;28.98;;;14.03;;
41305;SDS011;27051;50.376;19.152;2022-10-13T05:11:15;32.08;;;14.07;;
41305;SDS011;27051;50.376;19.152;2022-10-13T05:13:43;31.97;;;14.28;;
41305;SDS011;27051;50.376;19.152;2022-10-13T05:16:10;38.42;;;14.03;;
41305;SDS011;27051;50.376;19.152;2022-10-13T05:18:39;27.67;;;13.28;;
41305;SDS011;27051;50.376;19.152;2022-10-13T05:21:07;26.90;;;13.35;;
41305;SDS011;27051;50.376;19.152;2022-10-13T05:23:39;27.17;;;13.98;;
41305;SDS011;27051;50.376;19.152;2022-10-13T05:26:07;32.70;;;14.50;;
41305;SDS011;27051;50.376;19.152;2022-10-13T05:28:37;27.48;;;14.80;;
41305;SDS011;27051;50.376;19.152;2022-10-13T05:31:10;30.82;;;14.28;;
41305;SDS011;27051;50.376;19.152;2022-10-13T05:33:43;27.22;;;13.32;;
41305;SDS011;27051;50.376;19.152;2022-10-13T05:36:12;26.82;;;12.98;;
41305;SDS011;27051;50.376;19.152;2022-10-13T05:38:42;27.98;;;14.00;;
41305;SDS011;27051;50.376;19.152;2022-10-13T05:41:11;29.15;;;14.90;;
41305;SDS011;27051;50.376;19.152;2022-10-13T05:43:39;25.00;;;13.38;;
41305;SDS011;27051;50.376;19.152;2022-10-13T05:46:07;34.63;;;14.03;;
41305;SDS011;27051;50.376;19.152;2022-10-13T05:48:35;32.15;;;14.73;;
41305;SDS011;27051;50.376;19.152;2022-10-13T05:51:49;29.27;;;13.68;;
41305;SDS011;27051;50.376;19.152;2022-10-13T05:53:57;30.40;;;14.53;;
41305;SDS011;27051;50.376;19.152;2022-10-13T05:56:18;33.00;;;14.33;;
41305;SDS011;27051;50.376;19.152;2022-10-13T05:58:52;29.75;;;15.05;;
41305;SDS011;27051;50.376;19.152;2022-10-13T06:01:24;27.25;;;13.00;;
41305;SDS011;27051;50.376;19.152;2022-10-13T06:03:54;27.10;;;13.63;;
41305;SDS011;27051;50.376;19.152;2022-10-13T06:06:26;27.87;;;13.68;;
41305;SDS011;27051;50.376;19.152;2022-10-13T06:08:53;37.30;;;17.35;;
41305;SDS011;27051;50.376;19.152;2022-10-13T06:11:20;29.12;;;14.33;;
41305;SDS011;27051;50.376;19.152;2022-10-13T06:13:47;26.77;;;13.25;;
41305;SDS011;27051;50.376;19.152;2022-10-13T06:16:14;29.02;;;14.80;;
41305;SDS011;27051;50.376;19.152;2022-10-13T06:18:40;27.37;;;13.90;;
41305;SDS011;27051;50.376;19.152;2022-10-13T06:21:07;26.23;;;13.72;;
41305;SDS011;27051;50.376;19.152;2022-10-13T06:23:34;31.77;;;14.68;;
41305;SDS011;27051;50.376;19.152;2022-10-13T06:26:00;32.63;;;16.05;;
41305;SDS011;27051;50.376;19.152;2022-10-13T06:28:27;31.40;;;16.12;;
41305;SDS011;27051;50.376;19.152;2022-10-13T06:30:54;29.35;;;16.12;;
41305;SDS011;27051;50.376;19.152;2022-10-13T06:33:24;31.05;;;15.83;;
41305;SDS011;27051;50.376;19.152;2022-10-13T06:35:51;31.30;;;15.98;;
41305;SDS011;27051;50.376;19.152;2022-10-13T06:38:18;31.42;;;15.32;;
41305;SDS011;27051;50.376;19.152;2022-10-13T06:40:45;29.02;;;16.45;;
41305;SDS011;27051;50.376;19.152;2022-10-13T06:43:12;29.70;;;15.23;;
41305;SDS011;27051;50.376;19.152;2022-10-13T06:45:39;30.88;;;15.43;;
41305;SDS011;27051;50.376;19.152;2022-10-13T06:48:05;26.93;;;15.70;;
41305;SDS011;27051;50.376;19.152;2022-10-13T06:50:32;30.12;;;14.53;;
41305;SDS011;27051;50.376;19.152;2022-10-13T06:52:59;34.00;;;15.80;;
41305;SDS011;27051;50.376;19.152;2022-10-13T06:55:26;29.48;;;16.02;;
41305;SDS011;27051;50.376;19.152;2022-10-13T06:57:53;36.30;;;15.60;;
41305;SDS011;27051;50.376;19.152;2022-10-13T07:00:19;45.33;;;19.70;;
41305;SDS011;27051;50.376;19.152;2022-10-13T07:02:50;46.95;;;22.70;;
41305;SDS011;27051;50.376;19.152;2022-10-13T07:05:17;47.35;;;21.65;;
41305;SDS011;27051;50.376;19.152;2022-10-13T07:07:44;41.88;;;20.32;;
41305;SDS011;27051;50.376;19.152;2022-10-13T07:10:11;36.45;;;17.80;;
41305;SDS011;27051;50.376;19.152;2022-10-13T07:12:38;32.93;;;15.35;;
41305;SDS011;27051;50.376;19.152;2022-10-13T07:15:05;30.65;;;14.63;;
41305;SDS011;27051;50.376;19.152;2022-10-13T07:17:33;31.82;;;14.80;;
41305;SDS011;27051;50.376;19.152;2022-10-13T07:20:00;30.57;;;14.93;;
41305;SDS011;27051;50.376;19.152;2022-10-13T07:22:27;32.83;;;13.75;;
41305;SDS011;27051;50.376;19.152;2022-10-13T07:24:55;32.98;;;15.50;;
41305;SDS011;27051;50.376;19.152;2022-10-13T07:27:22;27.75;;;13.08;;
41305;SDS011;27051;50.376;19.152;2022-10-13T07:29:49;24.65;;;12.07;;
41305;SDS011;27051;50.376;19.152;2022-10-13T07:32:16;24.45;;;11.43;;
41305;SDS011;27051;50.376;19.152;2022-10-13T07:34:43;25.62;;;12.15;;
41305;SDS011;27051;50.376;19.152;2022-10-13T07:37:09;27.30;;;11.48;;
41305;SDS011;27051;50.376;19.152;2022-10-13T07:39:36;25.32;;;10.98;;
41305;SDS011;27051;50.376;19.152;2022-10-13T07:42:03;29.80;;;11.83;;
41305;SDS011;27051;50.376;19.152;2022-10-13T07:44:29;24.18;;;10.53;;
41305;SDS011;27051;50.376;19.152;2022-10-13T07:46:56;20.65;;;9.60;;
41305;SDS011;27051;50.376;19.152;2022-10-13T07:49:22;24.12;;;10.75;;
41305;SDS011;27051;50.376;19.152;2022-10-13T07:51:49;32.85;;;16.17;;
41305;SDS011;27051;50.376;19.152;2022-10-13T07:54:16;27.07;;;12.20;;
41305;SDS011;27051;50.376;19.152;2022-10-13T07:56:43;23.40;;;11.83;;
41305;SDS011;27051;50.376;19.152;2022-10-13T07:59:10;25.55;;;13.08;;
41305;SDS011;27051;50.376;19.152;2022-10-13T08:01:37;24.85;;;11.75;;
41305;SDS011;27051;50.376;19.152;2022-10-13T08:04:03;29.27;;;13.78;;
41305;SDS011;27051;50.376;19.152;2022-10-13T08:06:30;28.00;;;14.58;;
41305;SDS011;27051;50.376;19.152;2022-10-13T08:08:57;30.35;;;14.60;;
41305;SDS011;27051;50.376;19.152;2022-10-13T08:11:23;28.98;;;15.55;;
41305;SDS011;27051;50.376;19.152;2022-10-13T08:13:51;30.70;;;13.72;;
41305;SDS011;27051;50.376;19.152;2022-10-13T08:16:18;29.90;;;14.70;;
41305;SDS011;27051;50.376;19.152;2022-10-13T08:18:45;30.12;;;13.30;;
41305;SDS011;27051;50.376;19.152;2022-10-13T08:21:13;28.77;;;13.68;;
41305;SDS011;27051;50.376;19.152;2022-10-13T08:23:42;27.75;;;13.13;;
41305;SDS011;27051;50.376;19.152;2022-10-13T08:26:20;27.42;;;13.22;;
41305;SDS011;27051;50.376;19.152;2022-10-13T08:28:47;22.62;;;11.93;;
41305;SDS011;27051;50.376;19.152;2022-10-13T08:31:14;21.80;;;11.22;;
41305;SDS011;27051;50.376;19.152;2022-10-13T08:33:41;29.57;;;12.80;;
41305;SDS011;27051;50.376;19.152;2022-10-13T08:36:08;22.48;;;11.43;;
41305;SDS011;27051;50.376;19.152;2022-10-13T08:38:35;24.80;;;10.98;;
41305;SDS011;27051;50.376;19.152;2022-10-13T08:41:01;27.48;;;12.98;;
41305;SDS011;27051;50.376;19.152;2022-10-13T08:43:32;30.88;;;14.47;;
41305;SDS011;27051;50.376;19.152;2022-10-13T08:45:59;26.77;;;14.00;;
41305;SDS011;27051;50.376;19.152;2022-10-13T08:48:26;26.45;;;13.22;;
41305;SDS011;27051;50.376;19.152;2022-10-13T08:51:07;33.75;;;17.17;;
41305;SDS011;27051;50.376;19.152;2022-10-13T08:53:37;22.30;;;11.38;;
41305;SDS011;27051;50.376;19.152;2022-10-13T08:58:48;22.75;;;11.55;;
41305;SDS011;27051;50.376;19.152;2022-10-13T09:01:19;25.05;;;11.05;;
41305;SDS011;27051;50.376;19.152;2022-10-13T09:03:54;24.18;;;11.60;;
41305;SDS011;27051;50.376;19.152;2022-10-13T09:06:25;22.82;;;11.78;;
41305;SDS011;27051;50.376;19.152;2022-10-13T09:08:59;30.43;;;12.25;;
41305;SDS011;27051;50.376;19.152;2022-10-13T09:11:31;24.55;;;12.53;;
41305;SDS011;27051;50.376;19.152;2022-10-13T09:14:02;24.98;;;12.47;;
41305;SDS011;27051;50.376;19.152;2022-10-13T09:16:36;27.70;;;12.07;;
41305;SDS011;27051;50.376;19.152;2022-10-13T09:19:10;25.97;;;12.05;;
41305;SDS011;27051;50.376;19.152;2022-10-13T09:21:53;28.50;;;13.32;;
41305;SDS011;27051;50.376;19.152;2022-10-13T09:24:25;25.35;;;12.00;;
41305;SDS011;27051;50.376;19.152;2022-10-13T09:27:06;27.77;;;12.65;;
41305;SDS011;27051;50.376;19.152;2022-10-13T09:29:40;24.15;;;13.55;;
41305;SDS011;27051;50.376;19.152;2022-10-13T09:32:12;38.55;;;20.70;;
41305;SDS011;27051;50.376;19.152;2022-10-13T09:34:44;29.45;;;15.35;;
41305;SDS011;27051;50.376;19.152;2022-10-13T09:37:17;27.60;;;12.95;;
41305;SDS011;27051;50.376;19.152;2022-10-13T09:39:58;26.10;;;13.10;;
41305;SDS011;27051;50.376;19.152;2022-10-13T09:42:39;25.37;;;12.47;;
41305;SDS011;27051;50.376;19.152;2022-10-13T09:45:13;28.87;;;12.30;;
41305;SDS011;27051;50.376;19.152;2022-10-13T09:47:57;27.02;;;12.82;;
41305;SDS011;27051;50.376;19.152;2022-10-13T09:50:27;25.80;;;11.80;;
41305;SDS011;27051;50.376;19.152;2022-10-13T09:58:36;25.70;;;12.88;;
41305;SDS011;27051;50.376;19.152;2022-10-13T10:01:16;32.60;;;14.93;;
41305;SDS011;27051;50.376;19.152;2022-10-13T10:03:47;28.15;;;12.53;;
41305;SDS011;27051;50.376;19.152;2022-10-13T10:06:16;22.93;;;11.88;;
41305;SDS011;27051;50.376;19.152;2022-10-13T10:11:56;26.75;;;12.25;;
41305;SDS011;27051;50.376;19.152;2022-10-13T10:14:30;27.07;;;13.13;;
41305;SDS011;27051;50.376;19.152;2022-10-13T10:17:22;23.60;;;12.75;;
41305;SDS011;27051;50.376;19.152;2022-10-13T10:22:34;24.63;;;12.35;;
41305;SDS011;27051;50.376;19.152;2022-10-13T10:30:57;25.68;;;12.55;;
41305;SDS011;27051;50.376;19.152;2022-10-13T10:36:44;26.77;;;12.90;;
41305;SDS011;27051;50.376;19.152;2022-10-13T10:39:35;22.02;;;11.90;;
41305;SDS011;27051;50.376;19.152;2022-10-13T10:42:10;24.80;;;10.95;;
41305;SDS011;27051;50.376;19.152;2022-10-13T10:44:47;27.22;;;13.45;;
41305;SDS011;27051;50.376;19.152;2022-10-13T10:47:22;24.87;;;12.65;;
41305;SDS011;27051;50.376;19.152;2022-10-13T10:49:55;21.05;;;11.55;;
41305;SDS011;27051;50.376;19.152;2022-10-13T10:52:29;22.37;;;11.00;;
41305;SDS011;27051;50.376;19.152;2022-10-13T10:55:19;22.40;;;9.95;;
41305;SDS011;27051;50.376;19.152;2022-10-13T11:01:20;20.88;;;9.83;;
41305;SDS011;27051;50.376;19.152;2022-10-13T11:04:12;16.37;;;8.78;;
41305;SDS011;27051;50.376;19.152;2022-10-13T11:06:50;17.62;;;7.92;;
41305;SDS011;27051;50.376;19.152;2022-10-13T11:09:37;14.98;;;7.80;;
41305;SDS011;27051;50.376;19.152;2022-10-13T11:12:21;15.93;;;8.03;;
41305;SDS011;27051;50.376;19.152;2022-10-13T11:17:39;18.42;;;7.80;;
41305;SDS011;27051;50.376;19.152;2022-10-13T11:30:55;14.38;;;8.13;;
41305;SDS011;27051;50.376;19.152;2022-10-13T11:42:07;15.30;;;7.37;;
41305;SDS011;27051;50.376;19.152;2022-10-13T11:50:49;22.17;;;9.73;;
41305;SDS011;27051;50.376;19.152;2022-10-13T11:56:49;11.25;;;5.70;;
41305;SDS011;27051;50.376;19.152;2022-10-13T11:59:26;16.73;;;8.13;;
41305;SDS011;27051;50.376;19.152;2022-10-13T12:02:19;15.30;;;6.33;;
41305;SDS011;27051;50.376;19.152;2022-10-13T12:04:39;11.60;;;6.72;;
41305;SDS011;27051;50.376;19.152;2022-10-13T12:07:08;11.22;;;5.58;;
41305;SDS011;27051;50.376;19.152;2022-10-13T12:09:38;13.45;;;5.37;;
41305;SDS011;27051;50.376;19.152;2022-10-13T12:12:18;11.73;;;5.95;;
41305;SDS011;27051;50.376;19.152;2022-10-13T12:14:50;11.78;;;5.83;;
41305;SDS011;27051;50.376;19.152;2022-10-13T12:17:22;26.07;;;15.08;;
41305;SDS011;27051;50.376;19.152;2022-10-13T12:19:55;30.17;;;18.23;;
41305;SDS011;27051;50.376;19.152;2022-10-13T12:22:49;66.25;;;43.60;;
41305;SDS011;27051;50.376;19.152;2022-10-13T12:25:17;31.82;;;19.32;;
41305;SDS011;27051;50.376;19.152;2022-10-13T12:27:48;13.15;;;7.55;;
41305;SDS011;27051;50.376;19.152;2022-10-13T12:30:29;17.62;;;7.75;;
41305;SDS011;27051;50.376;19.152;2022-10-13T12:32:59;17.10;;;7.65;;
41305;SDS011;27051;50.376;19.152;2022-10-13T12:35:31;16.93;;;6.95;;
41305;SDS011;27051;50.376;19.152;2022-10-13T12:37:59;14.25;;;7.75;;
41305;SDS011;27051;50.376;19.152;2022-10-13T12:40:32;13.93;;;6.62;;
41305;SDS011;27051;50.376;19.152;2022-10-13T12:42:59;18.25;;;7.75;;
41305;SDS011;27051;50.376;19.152;2022-10-13T12:45:29;13.80;;;6.90;;
41305;SDS011;27051;50.376;19.152;2022-10-13T12:47:58;12.53;;;6.45;;
41305;SDS011;27051;50.376;19.152;2022-10-13T12:53:10;14.50;;;6.80;;
41305;SDS011;27051;50.376;19.152;2022-10-13T12:55:48;34.95;;;20.95;;
41305;SDS011;27051;50.376;19.152;2022-10-13T12:58:26;36.55;;;24.90;;
41305;SDS011;27051;50.376;19.152;2022-10-13T13:03:41;41.37;;;32.48;;
41305;SDS011;27051;50.376;19.152;2022-10-13T13:06:18;23.38;;;15.85;;
41305;SDS011;27051;50.376;19.152;2022-10-13T13:08:44;20.45;;;10.68;;
41305;SDS011;27051;50.376;19.152;2022-10-13T13:11:21;17.92;;;7.83;;
41305;SDS011;27051;50.376;19.152;2022-10-13T13:19:49;11.50;;;6.20;;
41305;SDS011;27051;50.376;19.152;2022-10-13T13:22:18;17.92;;;8.38;;
41305;SDS011;27051;50.376;19.152;2022-10-13T13:24:45;13.62;;;7.78;;
41305;SDS011;27051;50.376;19.152;2022-10-13T13:27:19;13.83;;;5.80;;
41305;SDS011;27051;50.376;19.152;2022-10-13T13:29:56;16.30;;;5.45;;
41305;SDS011;27051;50.376;19.152;2022-10-13T13:32:22;13.83;;;7.10;;
41305;SDS011;27051;50.376;19.152;2022-10-13T13:34:52;17.15;;;8.43;;
41305;SDS011;27051;50.376;19.152;2022-10-13T13:37:24;24.27;;;14.30;;
41305;SDS011;27051;50.376;19.152;2022-10-13T13:40:00;20.77;;;10.68;;
41305;SDS011;27051;50.376;19.152;2022-10-13T13:42:27;13.98;;;8.35;;
41305;SDS011;27051;50.376;19.152;2022-10-13T13:44:54;11.48;;;7.60;;
41305;SDS011;27051;50.376;19.152;2022-10-13T13:47:26;12.68;;;7.30;;
41305;SDS011;27051;50.376;19.152;2022-10-13T13:49:53;13.10;;;7.08;;
41305;SDS011;27051;50.376;19.152;2022-10-13T13:52:22;15.18;;;7.92;;
41305;SDS011;27051;50.376;19.152;2022-10-13T13:54:49;12.40;;;7.95;;
41305;SDS011;27051;50.376;19.152;2022-10-13T13:57:17;9.93;;;6.50;;
41305;SDS011;27051;50.376;19.152;2022-10-13T13:59:45;12.45;;;6.55;;
41305;SDS011;27051;50.376;19.152;2022-10-13T14:02:20;14.50;;;8.15;;
41305;SDS011;27051;50.376;19.152;2022-10-13T14:04:48;15.40;;;8.10;;
41305;SDS011;27051;50.376;19.152;2022-10-13T14:07:15;11.08;;;7.53;;
41305;SDS011;27051;50.376;19.152;2022-10-13T14:09:43;19.57;;;8.85;;
41305;SDS011;27051;50.376;19.152;2022-10-13T14:12:10;22.35;;;12.90;;
41305;SDS011;27051;50.376;19.152;2022-10-13T14:14:37;17.70;;;10.05;;
41305;SDS011;27051;50.376;19.152;2022-10-13T14:17:03;16.52;;;9.88;;
41305;SDS011;27051;50.376;19.152;2022-10-13T14:19:31;17.25;;;10.50;;
41305;SDS011;27051;50.376;19.152;2022-10-13T14:21:58;24.25;;;14.68;;
41305;SDS011;27051;50.376;19.152;2022-10-13T14:24:25;24.72;;;16.00;;
41305;SDS011;27051;50.376;19.152;2022-10-13T14:26:53;57.93;;;38.78;;
41305;SDS011;27051;50.376;19.152;2022-10-13T14:29:19;65.55;;;40.65;;
41305;SDS011;27051;50.376;19.152;2022-10-13T14:31:52;70.87;;;41.98;;
41305;SDS011;27051;50.376;19.152;2022-10-13T14:34:19;56.65;;;31.75;;
41305;SDS011;27051;50.376;19.152;2022-10-13T14:36:45;39.00;;;22.05;;
41305;SDS011;27051;50.376;19.152;2022-10-13T14:39:12;23.12;;;14.00;;
41305;SDS011;27051;50.376;19.152;2022-10-13T14:41:39;22.48;;;13.38;;
41305;SDS011;27051;50.376;19.152;2022-10-13T14:44:06;22.90;;;12.98;;
41305;SDS011;27051;50.376;19.152;2022-10-13T14:46:32;22.73;;;13.35;;
41305;SDS011;27051;50.376;19.152;2022-10-13T14:48:59;21.17;;;12.90;;
41305;SDS011;27051;50.376;19.152;2022-10-13T14:51:26;28.07;;;15.25;;
41305;SDS011;27051;50.376;19.152;2022-10-13T14:53:52;26.95;;;14.68;;
41305;SDS011;27051;50.376;19.152;2022-10-13T14:56:23;22.67;;;13.90;;
41305;SDS011;27051;50.376;19.152;2022-10-13T14:58:53;28.02;;;14.58;;
41305;SDS011;27051;50.376;19.152;2022-10-13T15:01:22;25.08;;;15.35;;
41305;SDS011;27051;50.376;19.152;2022-10-13T15:03:49;34.85;;;19.00;;
41305;SDS011;27051;50.376;19.152;2022-10-13T15:06:18;29.07;;;16.60;;
41305;SDS011;27051;50.376;19.152;2022-10-13T15:08:48;28.45;;;18.05;;
41305;SDS011;27051;50.376;19.152;2022-10-13T15:11:16;27.27;;;15.10;;
41305;SDS011;27051;50.376;19.152;2022-10-13T15:13:44;26.55;;;16.73;;
41305;SDS011;27051;50.376;19.152;2022-10-13T15:16:15;30.92;;;20.82;;
41305;SDS011;27051;50.376;19.152;2022-10-13T15:18:51;33.92;;;20.48;;
41305;SDS011;27051;50.376;19.152;2022-10-13T15:21:18;32.60;;;18.23;;
41305;SDS011;27051;50.376;19.152;2022-10-13T15:23:45;39.83;;;22.07;;
41305;SDS011;27051;50.376;19.152;2022-10-13T15:26:13;51.20;;;23.50;;
41305;SDS011;27051;50.376;19.152;2022-10-13T15:28:43;45.58;;;24.25;;
41305;SDS011;27051;50.376;19.152;2022-10-13T15:31:12;38.85;;;23.07;;
41305;SDS011;27051;50.376;19.152;2022-10-13T15:33:41;42.67;;;24.27;;
41305;SDS011;27051;50.376;19.152;2022-10-13T15:36:10;40.85;;;24.00;;
41305;SDS011;27051;50.376;19.152;2022-10-13T15:38:37;40.20;;;25.05;;
41305;SDS011;27051;50.376;19.152;2022-10-13T15:41:04;43.17;;;25.25;;
41305;SDS011;27051;50.376;19.152;2022-10-13T15:43:33;41.95;;;26.20;;
41305;SDS011;27051;50.376;19.152;2022-10-13T15:46:07;43.15;;;27.93;;
41305;SDS011;27051;50.376;19.152;2022-10-13T15:48:38;53.13;;;31.10;;
41305;SDS011;27051;50.376;19.152;2022-10-13T15:51:07;53.23;;;30.55;;
41305;SDS011;27051;50.376;19.152;2022-10-13T15:53:41;53.35;;;32.48;;
41305;SDS011;27051;50.376;19.152;2022-10-13T15:56:07;59.50;;;35.50;;
41305;SDS011;27051;50.376;19.152;2022-10-13T15:58:34;62.38;;;41.42;;
41305;SDS011;27051;50.376;19.152;2022-10-13T16:01:05;67.58;;;41.60;;
41305;SDS011;27051;50.376;19.152;2022-10-13T16:03:37;75.47;;;44.48;;
41305;SDS011;27051;50.376;19.152;2022-10-13T16:06:09;83.03;;;47.98;;
41305;SDS011;27051;50.376;19.152;2022-10-13T16:08:35;120.65;;;76.97;;
41305;SDS011;27051;50.376;19.152;2022-10-13T16:11:07;138.50;;;75.95;;
41305;SDS011;27051;50.376;19.152;2022-10-13T16:13:37;142.15;;;80.70;;
41305;SDS011;27051;50.376;19.152;2022-10-13T16:16:04;174.87;;;101.75;;